Time,TemperatureF,DewpointF,PressureIn,WindDirection,WindDirectionDegrees,WindSpeedMPH,WindSpeedGustMPH,Humidity,HourlyPrecipIn,Conditions,Clouds,dailyrainin,SolarRadiationWatts/m^2,SoftwareType,DateUTC
2013-09-21 02:52:00,45.0,29.0,-100.00,NE,55,4.0,7.0,53,0.00,,,0.00,0.800000,,2013-09-21 10:52:00,
2013-09-21 03:03:00,45.0,29.0,-100.00,NE,55,4.0,7.0,53,0.00,,,0.00,0.800000,,2013-09-21 11:03:00,
2013-09-21 03:11:00,45.0,29.0,-100.00,NE,55,4.0,7.0,53,0.00,,,0.00,0.800000,,2013-09-21 11:11:00,
2013-09-21 03:22:00,45.0,29.0,-100.00,NE,55,4.0,7.0,53,0.00,,,0.00,0.800000,,2013-09-21 11:22:00,
2013-09-21 03:52:00,45.0,30.0,-100.00,WNW,282,1.0,9.0,56,0.00,,,0.00,0.800000,,2013-09-21 11:52:00,
2013-09-21 04:02:00,45.0,30.0,-100.00,WNW,282,1.0,9.0,56,0.00,,,0.00,0.800000,,2013-09-21 12:02:00,
2013-09-21 04:12:00,45.0,30.0,-100.00,WNW,282,1.0,9.0,56,0.00,,,0.00,0.800000,,2013-09-21 12:12:00,
2013-09-21 04:21:00,45.0,30.0,-100.00,WNW,282,1.0,9.0,56,0.00,,,0.00,0.800000,,2013-09-21 12:21:00,
2013-09-21 04:52:00,45.0,31.0,-100.00,East,97,4.0,8.0,58,0.00,,,-99.99,0.800000,,2013-09-21 12:52:00,
2013-09-21 05:02:00,45.0,31.0,-100.00,East,97,4.0,8.0,58,0.00,,,-99.99,0.800000,,2013-09-21 13:02:00,
2013-09-21 05:11:00,45.0,31.0,-100.00,East,97,4.0,8.0,58,0.00,,,-99.99,0.800000,,2013-09-21 13:11:00,
2013-09-21 05:21:00,45.0,31.0,-100.00,East,97,4.0,8.0,58,0.00,,,-99.99,0.800000,,2013-09-21 13:21:00,
2013-09-21 05:52:00,45.0,30.0,-100.00,West,269,4.0,11.0,56,0.00,,,-99.99,0.800000,,2013-09-21 13:52:00,
2013-09-21 06:02:00,45.0,30.0,-100.00,West,269,4.0,11.0,56,0.00,,,-99.99,0.800000,,2013-09-21 14:02:00,
2013-09-21 06:11:00,45.0,30.0,-100.00,West,269,4.0,11.0,56,0.00,,,-99.99,0.800000,,2013-09-21 14:11:00,
2013-09-21 06:22:00,45.0,30.0,-100.00,West,269,4.0,11.0,56,0.00,,,-99.99,0.800000,,2013-09-21 14:22:00,
2013-09-21 06:52:00,45.0,29.0,-100.00,West,281,3.0,8.0,54,0.00,,,0.00,0.800000,,2013-09-21 14:52:00,
2013-09-21 07:01:00,45.0,29.0,-100.00,West,281,3.0,8.0,54,0.00,,,0.00,0.800000,,2013-09-21 15:01:00,
2013-09-21 07:12:00,45.0,29.0,-100.00,West,281,3.0,8.0,54,0.00,,,0.00,0.800000,,2013-09-21 15:12:00,
2013-09-21 07:22:00,45.0,29.0,-100.00,West,281,3.0,8.0,54,0.00,,,0.00,0.800000,,2013-09-21 15:22:00,
2013-09-21 07:55:00,45.0,25.0,-100.00,East,88,12.0,12.0,45,0.00,,,0.00,0.800000,,2013-09-21 15:55:00,
2013-09-21 08:05:00,45.0,25.0,-100.00,East,88,12.0,12.0,45,0.00,,,0.00,0.800000,,2013-09-21 16:05:00,
2013-09-21 08:14:00,45.0,25.0,-100.00,East,88,12.0,12.0,45,0.00,,,0.00,0.800000,,2013-09-21 16:14:00,
2013-09-21 08:24:00,45.0,25.0,-100.00,East,88,12.0,12.0,45,0.00,,,0.00,0.800000,,2013-09-21 16:24:00,
2013-09-21 08:54:00,44.0,30.0,-100.00,East,90,9.0,24.0,58,0.00,,,0.00,4.200000,,2013-09-21 16:54:00,
2013-09-21 09:03:00,44.0,30.0,-100.00,East,90,9.0,24.0,58,0.00,,,0.00,4.200000,,2013-09-21 17:03:00,
2013-09-21 09:12:00,44.0,30.0,-100.00,East,90,9.0,24.0,58,0.00,,,0.00,4.200000,,2013-09-21 17:12:00,
2013-09-21 09:23:00,44.0,30.0,-100.00,East,90,9.0,24.0,58,0.00,,,0.00,4.200000,,2013-09-21 17:23:00,
2013-09-21 09:52:00,43.0,31.0,-100.00,NNW,340,9.0,17.0,62,0.00,,,0.00,41.099998,,2013-09-21 17:52:00,
2013-09-21 10:02:00,43.0,31.0,-100.00,NNW,340,9.0,17.0,62,0.00,,,0.00,41.099998,,2013-09-21 18:02:00,
2013-09-21 10:12:00,43.0,31.0,-100.00,NNW,340,9.0,17.0,62,0.00,,,0.00,41.099998,,2013-09-21 18:12:00,
2013-09-21 10:21:00,43.0,31.0,-100.00,NNW,340,9.0,17.0,62,0.00,,,0.00,41.099998,,2013-09-21 18:21:00,
2013-09-21 10:52:00,43.0,33.0,-100.00,NW,306,4.0,15.0,67,0.00,,,0.00,75.699997,,2013-09-21 18:52:00,
2013-09-21 11:02:00,43.0,33.0,-100.00,NW,306,4.0,15.0,67,0.00,,,0.00,75.699997,,2013-09-21 19:02:00,
2013-09-21 11:11:00,43.0,33.0,-100.00,NW,306,4.0,15.0,67,0.00,,,0.00,75.699997,,2013-09-21 19:11:00,
2013-09-21 11:21:00,43.0,33.0,-100.00,NW,306,4.0,15.0,67,0.00,,,0.00,75.699997,,2013-09-21 19:21:00,
2013-09-21 11:52:00,45.0,33.0,-100.00,NNE,17,6.0,12.0,64,0.00,,,0.00,103.599998,,2013-09-21 19:52:00,
2013-09-21 12:02:00,45.0,33.0,-100.00,NNE,17,6.0,12.0,64,0.00,,,0.00,103.599998,,2013-09-21 20:02:00,
2013-09-21 12:12:00,45.0,33.0,-100.00,NNE,17,6.0,12.0,64,0.00,,,0.00,103.599998,,2013-09-21 20:12:00,
2013-09-21 12:21:00,45.0,33.0,-100.00,NNE,17,6.0,12.0,64,0.00,,,0.00,103.599998,,2013-09-21 20:21:00,
2013-09-21 12:52:00,47.0,34.0,-100.00,NNW,346,4.0,11.0,61,0.00,,,0.00,145.199997,,2013-09-21 20:52:00,
2013-09-21 13:02:00,47.0,34.0,-100.00,NNW,346,4.0,11.0,61,0.00,,,0.00,145.199997,,2013-09-21 21:02:00,
2013-09-21 13:11:00,47.0,34.0,-100.00,NNW,346,4.0,11.0,61,0.00,,,0.00,145.199997,,2013-09-21 21:11:00,
2013-09-21 13:21:00,47.0,34.0,-100.00,NNW,346,4.0,11.0,61,0.00,,,0.00,145.199997,,2013-09-21 21:21:00,
2013-09-21 13:54:00,48.0,34.0,-100.00,NE,35,10.0,20.0,58,0.00,,,0.00,208.500000,,2013-09-21 21:54:00,
2013-09-21 14:05:00,48.0,34.0,-100.00,NE,35,10.0,20.0,58,0.00,,,0.00,208.500000,,2013-09-21 22:05:00,
2013-09-21 14:13:00,48.0,34.0,-100.00,NE,35,10.0,20.0,58,0.00,,,0.00,208.500000,,2013-09-21 22:13:00,
2013-09-21 14:23:00,48.0,34.0,-100.00,NE,35,10.0,20.0,58,0.00,,,0.00,208.500000,,2013-09-21 22:23:00,
2013-09-21 14:53:00,49.0,35.0,-100.00,NNE,25,11.0,20.0,57,0.00,,,0.00,194.699997,,2013-09-21 22:53:00,
2013-09-21 15:03:00,49.0,35.0,-100.00,NNE,25,11.0,20.0,57,0.00,,,0.00,194.699997,,2013-09-21 23:03:00,
2013-09-21 15:12:00,49.0,35.0,-100.00,NNE,25,11.0,20.0,57,0.00,,,0.00,194.699997,,2013-09-21 23:12:00,
2013-09-21 15:22:00,49.0,35.0,-100.00,NNE,25,11.0,20.0,57,0.00,,,0.00,194.699997,,2013-09-21 23:22:00,
2013-09-21 15:52:00,50.0,34.0,-100.00,NNE,15,12.0,19.0,54,0.00,,,0.00,245.199997,,2013-09-21 23:52:00,
2013-09-21 16:02:00,50.0,34.0,-100.00,NNE,15,12.0,19.0,54,0.00,,,0.00,245.199997,,2013-09-22 00:02:00,
2013-09-21 16:12:00,50.0,34.0,-100.00,NNE,15,12.0,19.0,54,0.00,,,0.00,245.199997,,2013-09-22 00:12:00,
2013-09-21 16:22:00,50.0,34.0,-100.00,NNE,15,12.0,19.0,54,0.00,,,0.00,245.199997,,2013-09-22 00:22:00,
2013-09-21 16:52:00,50.0,34.0,-100.00,NNE,24,12.0,22.0,55,0.00,,,0.00,175.000000,,2013-09-22 00:52:00,
2013-09-21 17:02:00,50.0,34.0,-100.00,NNE,24,12.0,22.0,55,0.00,,,0.00,175.000000,,2013-09-22 01:02:00,
2013-09-21 17:11:00,50.0,34.0,-100.00,NNE,24,12.0,22.0,55,0.00,,,0.00,175.000000,,2013-09-22 01:11:00,
2013-09-21 17:21:00,50.0,34.0,-100.00,NNE,24,12.0,22.0,55,0.00,,,0.00,175.000000,,2013-09-22 01:21:00,
2013-09-21 17:52:00,49.0,35.0,-100.00,NNE,32,13.0,24.0,58,0.00,,,0.00,157.399994,,2013-09-22 01:52:00,
2013-09-21 18:02:00,49.0,35.0,-100.00,NNE,32,13.0,24.0,58,0.00,,,0.00,157.399994,,2013-09-22 02:02:00,
2013-09-21 18:11:00,49.0,35.0,-100.00,NNE,32,13.0,24.0,58,0.00,,,0.00,157.399994,,2013-09-22 02:11:00,
2013-09-21 18:22:00,49.0,35.0,-100.00,NNE,32,13.0,24.0,58,0.00,,,0.00,157.399994,,2013-09-22 02:22:00,
2013-09-21 18:52:00,48.0,35.0,-100.00,NNE,13,11.0,22.0,60,0.00,,,0.00,67.500000,,2013-09-22 02:52:00,
2013-09-21 19:02:00,48.0,35.0,-100.00,NNE,13,11.0,22.0,60,0.00,,,0.00,67.500000,,2013-09-22 03:02:00,
2013-09-21 19:12:00,48.0,35.0,-100.00,NNE,13,11.0,22.0,60,0.00,,,0.00,67.500000,,2013-09-22 03:12:00,
2013-09-21 19:22:00,48.0,35.0,-100.00,NNE,13,11.0,22.0,60,0.00,,,0.00,67.500000,,2013-09-22 03:22:00,
2013-09-21 19:54:00,47.0,35.0,-100.00,NE,36,16.0,21.0,64,0.00,,,0.00,27.200001,,2013-09-22 03:54:00,
2013-09-21 20:02:00,-999.0,-99.9,-100.00,NE,36,16.0,21.0,-999,-99.99,,,-99.99,27.200001,,2013-09-22 04:02:00,
2013-09-21 20:14:00,47.0,35.0,-100.00,NE,36,16.0,21.0,64,0.00,,,0.00,27.200001,,2013-09-22 04:14:00,
2013-09-21 20:23:00,47.0,35.0,-100.00,NE,36,16.0,21.0,64,0.00,,,0.00,27.200001,,2013-09-22 04:23:00,
2013-09-21 20:54:00,46.0,35.0,-100.00,NNE,22,12.0,22.0,65,0.00,,,0.00,4.000000,,2013-09-22 04:54:00,
2013-09-21 21:03:00,46.0,35.0,-100.00,NNE,22,12.0,22.0,65,0.00,,,0.00,4.000000,,2013-09-22 05:03:00,
2013-09-21 21:13:00,46.0,35.0,-100.00,NNE,22,12.0,22.0,65,0.00,,,0.00,4.000000,,2013-09-22 05:13:00,
2013-09-21 21:22:00,46.0,35.0,-100.00,NNE,22,12.0,22.0,65,0.00,,,0.00,4.000000,,2013-09-22 05:22:00,
2013-09-21 21:53:00,48.0,32.0,-100.00,NNW,334,11.0,21.0,55,0.00,,,0.00,0.800000,,2013-09-22 05:53:00,
2013-09-21 22:02:00,48.0,32.0,-100.00,NNW,334,11.0,21.0,55,0.00,,,0.00,0.800000,,2013-09-22 06:02:00,
2013-09-21 22:12:00,48.0,32.0,-100.00,NNW,334,11.0,21.0,55,0.00,,,0.00,0.800000,,2013-09-22 06:12:00,
2013-09-21 22:21:00,48.0,32.0,-100.00,NNW,334,11.0,21.0,55,0.00,,,0.00,0.800000,,2013-09-22 06:21:00,
2013-09-21 22:52:00,47.0,32.0,-100.00,North,4,12.0,26.0,55,0.00,,,0.00,0.800000,,2013-09-22 06:52:00,
2013-09-21 23:02:00,47.0,32.0,-100.00,North,4,12.0,26.0,55,0.00,,,0.00,0.800000,,2013-09-22 07:02:00,
2013-09-21 23:11:00,47.0,32.0,-100.00,North,4,12.0,26.0,55,0.00,,,0.00,0.800000,,2013-09-22 07:11:00,
2013-09-21 23:21:00,47.0,32.0,-100.00,North,4,12.0,26.0,55,0.00,,,0.00,0.800000,,2013-09-22 07:21:00,
2013-09-21 23:52:00,45.0,36.0,-100.00,NNE,29,12.0,24.0,70,0.00,,,0.00,0.800000,,2013-09-22 07:52:00,